sensor_id;sensor_type;location;lat;lon;timestamp;temperature;humidity
2062;DHT22;11070;51.336;12.340;2024-03-02T00:01:10;6.90;99.90
2062;DHT22;11070;51.336;12.340;2024-03-02T00:03:37;6.90;99.90
2062;DHT22;11070;51.336;12.340;2024-03-02T00:06:03;6.90;99.90
2062;DHT22;11070;51.336;12.340;2024-03-02T00:08:29;6.90;99.90
2062;DHT22;11070;51.336;12.340;2024-03-02T00:10:59;6.90;99.90
2062;DHT22;11070;51.336;12.340;2024-03-02T00:13:26;6.90;99.90
2062;DHT22;11070;51.336;12.340;2024-03-02T00:15:55;6.90;99.90
2062;DHT22;11070;51.336;12.340;2024-03-02T00:18:31;6.90;99.90
2062;DHT22;11070;51.336;12.340;2024-03-02T00:20:58;7.00;99.90
2062;DHT22;11070;51.336;12.340;2024-03-02T00:23:27;6.90;99.90
2062;DHT22;11070;51.336;12.340;2024-03-02T00:25:55;6.90;99.90
2062;DHT22;11070;51.336;12.340;2024-03-02T00:28:25;6.90;99.90
2062;DHT22;11070;51.336;12.340;2024-03-02T00:31:01;6.80;99.90
2062;DHT22;11070;51.336;12.340;2024-03-02T00:33:33;6.80;99.90
2062;DHT22;11070;51.336;12.340;2024-03-02T00:35:59;6.80;99.90
2062;DHT22;11070;51.336;12.340;2024-03-02T00:38:27;6.90;99.90
2062;DHT22;11070;51.336;12.340;2024-03-02T00:40:53;6.90;99.90
2062;DHT22;11070;51.336;12.340;2024-03-02T00:43:50;6.80;99.90
2062;DHT22;11070;51.336;12.340;2024-03-02T00:46:19;6.80;99.90
2062;DHT22;11070;51.336;12.340;2024-03-02T00:48:51;6.90;99.90
2062;DHT22;11070;51.336;12.340;2024-03-02T00:51:18;6.90;99.90
2062;DHT22;11070;51.336;12.340;2024-03-02T00:53:44;6.90;99.90
2062;DHT22;11070;51.336;12.340;2024-03-02T00:56:10;6.90;99.90
2062;DHT22;11070;51.336;12.340;2024-03-02T00:58:37;6.90;99.90
2062;DHT22;11070;51.336;12.340;2024-03-02T01:01:03;6.90;99.90
2062;DHT22;11070;51.336;12.340;2024-03-02T01:03:30;6.90;99.90
2062;DHT22;11070;51.336;12.340;2024-03-02T01:05:56;6.90;99.90
2062;DHT22;11070;51.336;12.340;2024-03-02T01:08:22;6.90;99.90
2062;DHT22;11070;51.336;12.340;2024-03-02T01:10:47;6.90;99.90
2062;DHT22;11070;51.336;12.340;2024-03-02T01:13:13;6.90;99.90
2062;DHT22;11070;51.336;12.340;2024-03-02T01:15:39;7.00;99.90
2062;DHT22;11070;51.336;12.340;2024-03-02T01:18:04;7.00;99.90
2062;DHT22;11070;51.336;12.340;2024-03-02T01:20:30;7.00;99.90
2062;DHT22;11070;51.336;12.340;2024-03-02T01:22:56;7.00;99.90
2062;DHT22;11070;51.336;12.340;2024-03-02T01:25:21;7.00;99.90
2062;DHT22;11070;51.336;12.340;2024-03-02T01:27:47;7.00;99.90
2062;DHT22;11070;51.336;12.340;2024-03-02T01:30:13;7.00;99.90
2062;DHT22;11070;51.336;12.340;2024-03-02T01:32:39;6.90;99.90
2062;DHT22;11070;51.336;12.340;2024-03-02T01:35:05;6.80;99.90
2062;DHT22;11070;51.336;12.340;2024-03-02T01:37:31;6.80;99.90
2062;DHT22;11070;51.336;12.340;2024-03-02T01:39:56;6.70;99.90
2062;DHT22;11070;51.336;12.340;2024-03-02T01:42:22;6.70;99.90
2062;DHT22;11070;51.336;12.340;2024-03-02T01:44:48;6.70;99.90
2062;DHT22;11070;51.336;12.340;2024-03-02T01:47:14;6.70;99.90
2062;DHT22;11070;51.336;12.340;2024-03-02T01:49:39;6.70;99.90
2062;DHT22;11070;51.336;12.340;2024-03-02T01:52:07;6.70;99.90
2062;DHT22;11070;51.336;12.340;2024-03-02T01:54:32;6.70;99.90
2062;DHT22;11070;51.336;12.340;2024-03-02T01:56:59;6.70;99.90
2062;DHT22;11070;51.336;12.340;2024-03-02T01:59:25;6.80;99.90
2062;DHT22;11070;51.336;12.340;2024-03-02T02:01:50;6.70;99.90
2062;DHT22;11070;51.336;12.340;2024-03-02T02:04:16;6.70;99.90
2062;DHT22;11070;51.336;12.340;2024-03-02T02:06:44;6.70;99.90
2062;DHT22;11070;51.336;12.340;2024-03-02T02:09:10;6.70;99.90
2062;DHT22;11070;51.336;12.340;2024-03-02T02:11:36;6.70;99.90
2062;DHT22;11070;51.336;12.340;2024-03-02T02:14:01;6.70;99.90
2062;DHT22;11070;51.336;12.340;2024-03-02T02:16:27;6.70;99.90
2062;DHT22;11070;51.336;12.340;2024-03-02T02:18:52;6.70;99.90
2062;DHT22;11070;51.336;12.340;2024-03-02T02:21:22;6.70;99.90
2062;DHT22;11070;51.336;12.340;2024-03-02T02:23:48;6.70;99.90
2062;DHT22;11070;51.336;12.340;2024-03-02T02:26:14;6.80;99.90
2062;DHT22;11070;51.336;12.340;2024-03-02T02:28:39;6.80;99.90
2062;DHT22;11070;51.336;12.340;2024-03-02T02:31:12;6.70;99.90
2062;DHT22;11070;51.336;12.340;2024-03-02T02:33:39;6.70;99.90
2062;DHT22;11070;51.336;12.340;2024-03-02T02:36:05;6.70;99.90
2062;DHT22;11070;51.336;12.340;2024-03-02T02:38:33;6.70;99.90
2062;DHT22;11070;51.336;12.340;2024-03-02T02:41:01;6.70;99.90
2062;DHT22;11070;51.336;12.340;2024-03-02T02:43:27;6.70;99.90
2062;DHT22;11070;51.336;12.340;2024-03-02T02:45:52;6.80;99.90
2062;DHT22;11070;51.336;12.340;2024-03-02T02:48:18;6.80;99.90
2062;DHT22;11070;51.336;12.340;2024-03-02T02:50:44;6.80;99.90
2062;DHT22;11070;51.336;12.340;2024-03-02T02:53:09;6.80;99.90
2062;DHT22;11070;51.336;12.340;2024-03-02T02:55:35;6.70;99.90
2062;DHT22;11070;51.336;12.340;2024-03-02T02:58:06;6.80;99.90
2062;DHT22;11070;51.336;12.340;2024-03-02T03:00:31;6.80;99.90
2062;DHT22;11070;51.336;12.340;2024-03-02T03:02:57;6.80;99.90
2062;DHT22;11070;51.336;12.340;2024-03-02T03:05:23;6.90;99.90
2062;DHT22;11070;51.336;12.340;2024-03-02T03:07:48;6.90;99.90
2062;DHT22;11070;51.336;12.340;2024-03-02T03:10:15;6.80;99.90
2062;DHT22;11070;51.336;12.340;2024-03-02T03:12:42;6.80;99.90
2062;DHT22;11070;51.336;12.340;2024-03-02T03:15:09;6.70;99.90
2062;DHT22;11070;51.336;12.340;2024-03-02T03:17:35;6.70;99.90
2062;DHT22;11070;51.336;12.340;2024-03-02T03:20:02;6.70;99.90
2062;DHT22;11070;51.336;12.340;2024-03-02T03:22:30;6.70;99.90
2062;DHT22;11070;51.336;12.340;2024-03-02T03:24:56;6.80;99.90
2062;DHT22;11070;51.336;12.340;2024-03-02T03:27:25;6.70;99.90
2062;DHT22;11070;51.336;12.340;2024-03-02T03:29:51;6.80;99.90
2062;DHT22;11070;51.336;12.340;2024-03-02T03:32:17;6.80;99.90
2062;DHT22;11070;51.336;12.340;2024-03-02T03:34:43;6.80;99.90
2062;DHT22;11070;51.336;12.340;2024-03-02T03:37:09;6.80;99.90
2062;DHT22;11070;51.336;12.340;2024-03-02T03:39:35;6.80;99.90
2062;DHT22;11070;51.336;12.340;2024-03-02T03:42:05;6.80;99.90
2062;DHT22;11070;51.336;12.340;2024-03-02T03:44:31;6.80;99.90
2062;DHT22;11070;51.336;12.340;2024-03-02T03:46:56;6.80;99.90
2062;DHT22;11070;51.336;12.340;2024-03-02T03:49:22;6.90;99.90
2062;DHT22;11070;51.336;12.340;2024-03-02T03:51:48;6.90;99.90
2062;DHT22;11070;51.336;12.340;2024-03-02T03:54:13;6.90;99.90
2062;DHT22;11070;51.336;12.340;2024-03-02T03:56:39;6.90;99.90
2062;DHT22;11070;51.336;12.340;2024-03-02T03:59:05;6.90;99.90
2062;DHT22;11070;51.336;12.340;2024-03-02T04:01:30;6.90;99.90
2062;DHT22;11070;51.336;12.340;2024-03-02T04:03:57;6.90;99.90
2062;DHT22;11070;51.336;12.340;2024-03-02T04:06:23;6.90;99.90
2062;DHT22;11070;51.336;12.340;2024-03-02T04:08:49;6.80;99.90
2062;DHT22;11070;51.336;12.340;2024-03-02T04:11:14;6.80;99.90
2062;DHT22;11070;51.336;12.340;2024-03-02T04:13:40;6.80;99.90
2062;DHT22;11070;51.336;12.340;2024-03-02T04:16:06;6.70;99.90
2062;DHT22;11070;51.336;12.340;2024-03-02T04:18:32;6.80;99.90
2062;DHT22;11070;51.336;12.340;2024-03-02T04:20:58;6.80;99.90
2062;DHT22;11070;51.336;12.340;2024-03-02T04:23:26;6.80;99.90
2062;DHT22;11070;51.336;12.340;2024-03-02T04:25:52;6.70;99.90
2062;DHT22;11070;51.336;12.340;2024-03-02T04:28:18;6.70;99.90
2062;DHT22;11070;51.336;12.340;2024-03-02T04:30:44;6.70;99.90
2062;DHT22;11070;51.336;12.340;2024-03-02T04:33:09;6.70;99.90
2062;DHT22;11070;51.336;12.340;2024-03-02T04:35:39;6.60;99.90
2062;DHT22;11070;51.336;12.340;2024-03-02T04:38:04;6.60;99.90
2062;DHT22;11070;51.336;12.340;2024-03-02T04:40:30;6.70;99.90
2062;DHT22;11070;51.336;12.340;2024-03-02T04:42:56;6.70;99.90
2062;DHT22;11070;51.336;12.340;2024-03-02T04:45:21;6.60;99.90
2062;DHT22;11070;51.336;12.340;2024-03-02T04:47:47;6.60;99.90
2062;DHT22;11070;51.336;12.340;2024-03-02T04:50:12;6.60;99.90
2062;DHT22;11070;51.336;12.340;2024-03-02T04:52:38;6.60;99.90
2062;DHT22;11070;51.336;12.340;2024-03-02T04:55:04;6.60;99.90
2062;DHT22;11070;51.336;12.340;2024-03-02T04:57:55;6.60;99.90
2062;DHT22;11070;51.336;12.340;2024-03-02T05:00:21;6.60;99.90
2062;DHT22;11070;51.336;12.340;2024-03-02T05:02:47;6.60;99.90
2062;DHT22;11070;51.336;12.340;2024-03-02T05:05:13;6.60;99.90
2062;DHT22;11070;51.336;12.340;2024-03-02T05:07:40;6.70;99.90
2062;DHT22;11070;51.336;12.340;2024-03-02T05:10:08;6.70;99.90
2062;DHT22;11070;51.336;12.340;2024-03-02T05:12:34;6.60;99.90
2062;DHT22;11070;51.336;12.340;2024-03-02T05:15:15;6.60;99.90
2062;DHT22;11070;51.336;12.340;2024-03-02T05:17:41;6.60;99.90
2062;DHT22;11070;51.336;12.340;2024-03-02T05:20:11;6.60;99.90
2062;DHT22;11070;51.336;12.340;2024-03-02T05:22:37;6.70;99.90
2062;DHT22;11070;51.336;12.340;2024-03-02T05:25:03;6.70;99.90
2062;DHT22;11070;51.336;12.340;2024-03-02T05:27:29;6.70;99.90
2062;DHT22;11070;51.336;12.340;2024-03-02T05:29:55;6.70;99.90
2062;DHT22;11070;51.336;12.340;2024-03-02T05:32:21;6.70;99.90
2062;DHT22;11070;51.336;12.340;2024-03-02T05:34:47;6.70;99.90
2062;DHT22;11070;51.336;12.340;2024-03-02T05:37:12;6.60;99.90
2062;DHT22;11070;51.336;12.340;2024-03-02T05:39:38;6.60;99.90
2062;DHT22;11070;51.336;12.340;2024-03-02T05:42:04;6.60;99.90
2062;DHT22;11070;51.336;12.340;2024-03-02T05:44:30;6.60;99.90
2062;DHT22;11070;51.336;12.340;2024-03-02T05:46:56;6.60;99.90
2062;DHT22;11070;51.336;12.340;2024-03-02T05:49:21;6.60;99.90
2062;DHT22;11070;51.336;12.340;2024-03-02T05:51:47;6.60;99.90
2062;DHT22;11070;51.336;12.340;2024-03-02T05:54:13;6.60;99.90
2062;DHT22;11070;51.336;12.340;2024-03-02T05:56:39;6.70;99.90
2062;DHT22;11070;51.336;12.340;2024-03-02T05:59:04;6.70;99.90
2062;DHT22;11070;51.336;12.340;2024-03-02T06:01:40;6.70;99.90
2062;DHT22;11070;51.336;12.340;2024-03-02T06:04:06;6.70;99.90
2062;DHT22;11070;51.336;12.340;2024-03-02T06:06:32;6.70;99.90
2062;DHT22;11070;51.336;12.340;2024-03-02T06:09:03;6.70;99.90
2062;DHT22;11070;51.336;12.340;2024-03-02T06:11:36;6.70;99.90
2062;DHT22;11070;51.336;12.340;2024-03-02T06:14:05;6.80;99.90
2062;DHT22;11070;51.336;12.340;2024-03-02T06:16:32;6.80;99.90
2062;DHT22;11070;51.336;12.340;2024-03-02T06:18:58;6.80;99.90
2062;DHT22;11070;51.336;12.340;2024-03-02T06:21:24;6.80;99.90
2062;DHT22;11070;51.336;12.340;2024-03-02T06:23:50;6.90;99.90
2062;DHT22;11070;51.336;12.340;2024-03-02T06:26:15;6.90;99.90
2062;DHT22;11070;51.336;12.340;2024-03-02T06:28:41;7.00;99.90
2062;DHT22;11070;51.336;12.340;2024-03-02T06:31:07;7.00;99.90
2062;DHT22;11070;51.336;12.340;2024-03-02T06:33:32;7.00;99.90
2062;DHT22;11070;51.336;12.340;2024-03-02T06:35:58;7.10;99.90
2062;DHT22;11070;51.336;12.340;2024-03-02T06:38:24;7.10;99.90
2062;DHT22;11070;51.336;12.340;2024-03-02T06:40:49;7.10;99.90
2062;DHT22;11070;51.336;12.340;2024-03-02T06:43:15;7.10;99.90
2062;DHT22;11070;51.336;12.340;2024-03-02T06:45:41;7.20;99.90
2062;DHT22;11070;51.336;12.340;2024-03-02T06:48:07;7.10;99.90
2062;DHT22;11070;51.336;12.340;2024-03-02T06:50:33;7.10;99.90
2062;DHT22;11070;51.336;12.340;2024-03-02T06:52:58;7.20;99.90
2062;DHT22;11070;51.336;12.340;2024-03-02T06:55:24;7.20;99.90
2062;DHT22;11070;51.336;12.340;2024-03-02T06:57:50;7.20;99.90
2062;DHT22;11070;51.336;12.340;2024-03-02T07:00:17;7.20;99.90
2062;DHT22;11070;51.336;12.340;2024-03-02T07:02:44;7.30;99.90
2062;DHT22;11070;51.336;12.340;2024-03-02T07:05:10;7.30;99.90
2062;DHT22;11070;51.336;12.340;2024-03-02T07:07:36;7.40;99.90
2062;DHT22;11070;51.336;12.340;2024-03-02T07:10:05;7.50;99.90
2062;DHT22;11070;51.336;12.340;2024-03-02T07:12:32;7.50;99.90
2062;DHT22;11070;51.336;12.340;2024-03-02T07:14:58;7.60;99.90
2062;DHT22;11070;51.336;12.340;2024-03-02T07:17:44;7.60;99.90
2062;DHT22;11070;51.336;12.340;2024-03-02T07:20:10;7.70;99.90
2062;DHT22;11070;51.336;12.340;2024-03-02T07:22:37;7.70;99.90
2062;DHT22;11070;51.336;12.340;2024-03-02T07:25:03;7.60;99.90
2062;DHT22;11070;51.336;12.340;2024-03-02T07:27:30;7.60;99.90
2062;DHT22;11070;51.336;12.340;2024-03-02T07:29:56;7.60;99.90
2062;DHT22;11070;51.336;12.340;2024-03-02T07:32:22;7.60;99.90
2062;DHT22;11070;51.336;12.340;2024-03-02T07:34:48;7.70;99.90
2062;DHT22;11070;51.336;12.340;2024-03-02T07:37:13;7.70;99.90
2062;DHT22;11070;51.336;12.340;2024-03-02T07:39:39;7.70;99.90
2062;DHT22;11070;51.336;12.340;2024-03-02T07:42:05;7.70;99.90
2062;DHT22;11070;51.336;12.340;2024-03-02T07:44:31;7.70;99.90
2062;DHT22;11070;51.336;12.340;2024-03-02T07:46:57;7.80;99.90
2062;DHT22;11070;51.336;12.340;2024-03-02T07:49:23;7.80;99.90
2062;DHT22;11070;51.336;12.340;2024-03-02T07:51:48;7.90;99.90
2062;DHT22;11070;51.336;12.340;2024-03-02T07:54:14;7.90;99.90
2062;DHT22;11070;51.336;12.340;2024-03-02T07:56:40;8.00;99.90
2062;DHT22;11070;51.336;12.340;2024-03-02T07:59:05;8.00;99.90
2062;DHT22;11070;51.336;12.340;2024-03-02T08:01:33;8.00;99.90
2062;DHT22;11070;51.336;12.340;2024-03-02T08:03:59;8.10;99.90
2062;DHT22;11070;51.336;12.340;2024-03-02T08:06:29;8.10;99.90
2062;DHT22;11070;51.336;12.340;2024-03-02T08:08:59;8.10;99.90
2062;DHT22;11070;51.336;12.340;2024-03-02T08:11:26;8.20;99.90
2062;DHT22;11070;51.336;12.340;2024-03-02T08:13:56;8.30;99.90
2062;DHT22;11070;51.336;12.340;2024-03-02T08:16:23;8.40;99.90
2062;DHT22;11070;51.336;12.340;2024-03-02T08:18:52;8.60;99.90
2062;DHT22;11070;51.336;12.340;2024-03-02T08:21:18;8.60;99.90
2062;DHT22;11070;51.336;12.340;2024-03-02T08:23:44;8.70;99.90
2062;DHT22;11070;51.336;12.340;2024-03-02T08:26:10;8.80;99.90
2062;DHT22;11070;51.336;12.340;2024-03-02T08:28:37;8.80;99.90
2062;DHT22;11070;51.336;12.340;2024-03-02T08:31:03;8.80;99.90
2062;DHT22;11070;51.336;12.340;2024-03-02T08:33:29;8.90;99.90
2062;DHT22;11070;51.336;12.340;2024-03-02T08:35:55;9.00;99.90
2062;DHT22;11070;51.336;12.340;2024-03-02T08:38:21;9.00;99.90
2062;DHT22;11070;51.336;12.340;2024-03-02T08:40:47;9.00;99.90
2062;DHT22;11070;51.336;12.340;2024-03-02T08:43:13;9.00;99.90
2062;DHT22;11070;51.336;12.340;2024-03-02T08:45:39;9.10;99.90
2062;DHT22;11070;51.336;12.340;2024-03-02T08:48:09;9.20;99.90
2062;DHT22;11070;51.336;12.340;2024-03-02T08:50:35;9.20;99.90
2062;DHT22;11070;51.336;12.340;2024-03-02T08:53:03;9.20;99.90
2062;DHT22;11070;51.336;12.340;2024-03-02T08:55:28;9.30;99.90
2062;DHT22;11070;51.336;12.340;2024-03-02T08:57:55;9.40;99.90
2062;DHT22;11070;51.336;12.340;2024-03-02T09:00:20;9.30;99.90
2062;DHT22;11070;51.336;12.340;2024-03-02T09:02:46;9.20;99.90
2062;DHT22;11070;51.336;12.340;2024-03-02T09:05:12;9.20;99.90
2062;DHT22;11070;51.336;12.340;2024-03-02T09:07:38;9.40;99.90
2062;DHT22;11070;51.336;12.340;2024-03-02T09:10:07;9.60;99.90
2062;DHT22;11070;51.336;12.340;2024-03-02T09:12:34;9.70;99.90
2062;DHT22;11070;51.336;12.340;2024-03-02T09:15:03;9.80;99.90
2062;DHT22;11070;51.336;12.340;2024-03-02T09:17:29;9.80;99.90
2062;DHT22;11070;51.336;12.340;2024-03-02T09:19:55;9.90;99.90
2062;DHT22;11070;51.336;12.340;2024-03-02T09:22:21;10.00;99.90
2062;DHT22;11070;51.336;12.340;2024-03-02T09:24:46;10.10;99.90
2062;DHT22;11070;51.336;12.340;2024-03-02T09:27:12;10.20;99.90
2062;DHT22;11070;51.336;12.340;2024-03-02T09:29:38;10.30;99.90
2062;DHT22;11070;51.336;12.340;2024-03-02T09:32:05;10.40;99.90
2062;DHT22;11070;51.336;12.340;2024-03-02T09:34:31;10.20;99.90
2062;DHT22;11070;51.336;12.340;2024-03-02T09:36:57;10.10;99.90
2062;DHT22;11070;51.336;12.340;2024-03-02T09:39:23;10.30;99.90
2062;DHT22;11070;51.336;12.340;2024-03-02T09:41:48;10.40;99.90
2062;DHT22;11070;51.336;12.340;2024-03-02T09:44:14;10.40;99.90
2062;DHT22;11070;51.336;12.340;2024-03-02T09:46:40;10.50;99.90
2062;DHT22;11070;51.336;12.340;2024-03-02T09:49:06;10.40;99.90
2062;DHT22;11070;51.336;12.340;2024-03-02T09:51:32;10.40;99.90
2062;DHT22;11070;51.336;12.340;2024-03-02T09:54:00;10.40;99.90
2062;DHT22;11070;51.336;12.340;2024-03-02T09:56:26;10.30;99.90
2062;DHT22;11070;51.336;12.340;2024-03-02T09:58:52;10.40;99.90
2062;DHT22;11070;51.336;12.340;2024-03-02T10:01:17;10.40;99.90
2062;DHT22;11070;51.336;12.340;2024-03-02T10:03:44;10.50;99.90
2062;DHT22;11070;51.336;12.340;2024-03-02T10:06:22;10.60;99.90
2062;DHT22;11070;51.336;12.340;2024-03-02T10:08:48;10.70;99.90
2062;DHT22;11070;51.336;12.340;2024-03-02T10:11:34;10.90;99.90
2062;DHT22;11070;51.336;12.340;2024-03-02T10:14:12;11.30;99.90
2062;DHT22;11070;51.336;12.340;2024-03-02T10:16:40;11.60;99.90
2062;DHT22;11070;51.336;12.340;2024-03-02T10:19:19;11.80;99.90
2062;DHT22;11070;51.336;12.340;2024-03-02T10:21:46;12.20;99.90
2062;DHT22;11070;51.336;12.340;2024-03-02T10:24:12;12.60;99.90
2062;DHT22;11070;51.336;12.340;2024-03-02T10:26:38;13.40;99.90
2062;DHT22;11070;51.336;12.340;2024-03-02T10:29:04;14.40;99.90
2062;DHT22;11070;51.336;12.340;2024-03-02T10:31:30;14.40;99.90
2062;DHT22;11070;51.336;12.340;2024-03-02T10:33:57;16.30;99.90
2062;DHT22;11070;51.336;12.340;2024-03-02T10:36:23;19.00;90.40
2062;DHT22;11070;51.336;12.340;2024-03-02T10:38:56;18.20;81.00
2062;DHT22;11070;51.336;12.340;2024-03-02T10:41:26;17.90;83.60
2062;DHT22;11070;51.336;12.340;2024-03-02T10:43:56;18.00;79.20
2062;DHT22;11070;51.336;12.340;2024-03-02T10:46:28;19.40;74.90
2062;DHT22;11070;51.336;12.340;2024-03-02T10:48:56;20.20;68.80
2062;DHT22;11070;51.336;12.340;2024-03-02T10:51:25;19.60;66.40
2062;DHT22;11070;51.336;12.340;2024-03-02T10:53:51;19.60;63.20
2062;DHT22;11070;51.336;12.340;2024-03-02T10:56:23;18.80;68.20
2062;DHT22;11070;51.336;12.340;2024-03-02T10:58:57;20.30;63.60
2062;DHT22;11070;51.336;12.340;2024-03-02T11:01:26;20.90;59.40
2062;DHT22;11070;51.336;12.340;2024-03-02T11:03:52;21.10;59.40
2062;DHT22;11070;51.336;12.340;2024-03-02T11:06:20;21.20;57.10
2062;DHT22;11070;51.336;12.340;2024-03-02T11:08:49;21.10;58.30
2062;DHT22;11070;51.336;12.340;2024-03-02T11:11:22;21.30;56.80
2062;DHT22;11070;51.336;12.340;2024-03-02T11:13:53;21.70;55.30
2062;DHT22;11070;51.336;12.340;2024-03-02T11:16:37;21.00;56.30
2062;DHT22;11070;51.336;12.340;2024-03-02T11:19:14;19.40;58.30
2062;DHT22;11070;51.336;12.340;2024-03-02T11:21:40;18.40;61.00
2062;DHT22;11070;51.336;12.340;2024-03-02T11:26:49;18.70;61.40
2062;DHT22;11070;51.336;12.340;2024-03-02T11:29:42;19.60;60.70
2062;DHT22;11070;51.336;12.340;2024-03-02T11:32:21;19.00;61.70
2062;DHT22;11070;51.336;12.340;2024-03-02T11:34:54;19.20;59.60
2062;DHT22;11070;51.336;12.340;2024-03-02T11:37:20;19.50;58.50
2062;DHT22;11070;51.336;12.340;2024-03-02T11:39:49;19.20;59.60
2062;DHT22;11070;51.336;12.340;2024-03-02T11:42:15;19.20;59.90
2062;DHT22;11070;51.336;12.340;2024-03-02T11:44:46;20.30;58.70
2062;DHT22;11070;51.336;12.340;2024-03-02T11:47:15;21.40;55.90
2062;DHT22;11070;51.336;12.340;2024-03-02T11:52:10;19.70;56.80
2062;DHT22;11070;51.336;12.340;2024-03-02T11:54:42;20.60;56.40
2062;DHT22;11070;51.336;12.340;2024-03-02T11:57:16;19.80;56.00
2062;DHT22;11070;51.336;12.340;2024-03-02T11:59:43;19.10;58.20
2062;DHT22;11070;51.336;12.340;2024-03-02T12:02:24;19.00;59.10
2062;DHT22;11070;51.336;12.340;2024-03-02T12:04:50;19.20;58.60
2062;DHT22;11070;51.336;12.340;2024-03-02T12:07:23;18.80;59.50
2062;DHT22;11070;51.336;12.340;2024-03-02T12:09:59;18.90;59.40
2062;DHT22;11070;51.336;12.340;2024-03-02T12:12:26;18.60;59.50
2062;DHT22;11070;51.336;12.340;2024-03-02T12:14:53;19.00;59.00
2062;DHT22;11070;51.336;12.340;2024-03-02T12:17:22;20.00;59.10
2062;DHT22;11070;51.336;12.340;2024-03-02T12:19:48;22.60;54.10
2062;DHT22;11070;51.336;12.340;2024-03-02T12:22:14;22.80;54.50
2062;DHT22;11070;51.336;12.340;2024-03-02T12:24:41;23.50;51.70
2062;DHT22;11070;51.336;12.340;2024-03-02T12:27:07;23.00;51.20
2062;DHT22;11070;51.336;12.340;2024-03-02T12:29:34;23.20;50.20
2062;DHT22;11070;51.336;12.340;2024-03-02T12:32:00;25.50;47.00
2062;DHT22;11070;51.336;12.340;2024-03-02T12:34:27;26.20;45.50
2062;DHT22;11070;51.336;12.340;2024-03-02T12:36:53;26.70;44.60
2062;DHT22;11070;51.336;12.340;2024-03-02T12:39:19;25.90;44.10
2062;DHT22;11070;51.336;12.340;2024-03-02T12:41:46;25.20;45.00
2062;DHT22;11070;51.336;12.340;2024-03-02T12:44:12;24.50;45.80
2062;DHT22;11070;51.336;12.340;2024-03-02T12:46:38;24.50;46.10
2062;DHT22;11070;51.336;12.340;2024-03-02T12:49:11;25.20;45.60
2062;DHT22;11070;51.336;12.340;2024-03-02T12:51:41;24.80;45.10
2062;DHT22;11070;51.336;12.340;2024-03-02T12:54:11;24.50;44.80
2062;DHT22;11070;51.336;12.340;2024-03-02T12:56:41;22.90;46.80
2062;DHT22;11070;51.336;12.340;2024-03-02T12:59:23;23.40;47.00
2062;DHT22;11070;51.336;12.340;2024-03-02T13:01:55;24.60;46.10
2062;DHT22;11070;51.336;12.340;2024-03-02T13:04:27;25.50;44.00
2062;DHT22;11070;51.336;12.340;2024-03-02T13:06:54;26.20;43.10
2062;DHT22;11070;51.336;12.340;2024-03-02T13:09:21;27.00;42.60
2062;DHT22;11070;51.336;12.340;2024-03-02T13:11:48;26.20;41.70
2062;DHT22;11070;51.336;12.340;2024-03-02T13:14:13;24.60;44.00
2062;DHT22;11070;51.336;12.340;2024-03-02T13:16:40;23.00;45.80
2062;DHT22;11070;51.336;12.340;2024-03-02T13:19:11;23.00;46.40
2062;DHT22;11070;51.336;12.340;2024-03-02T13:21:37;23.20;47.40
2062;DHT22;11070;51.336;12.340;2024-03-02T13:24:04;24.00;46.30
2062;DHT22;11070;51.336;12.340;2024-03-02T13:26:30;24.30;45.20
2062;DHT22;11070;51.336;12.340;2024-03-02T13:28:56;23.90;45.40
2062;DHT22;11070;51.336;12.340;2024-03-02T13:31:22;23.10;46.40
2062;DHT22;11070;51.336;12.340;2024-03-02T13:33:48;22.80;46.40
2062;DHT22;11070;51.336;12.340;2024-03-02T13:36:13;22.80;46.30
2062;DHT22;11070;51.336;12.340;2024-03-02T13:38:39;22.90;46.70
2062;DHT22;11070;51.336;12.340;2024-03-02T13:41:05;23.20;46.40
2062;DHT22;11070;51.336;12.340;2024-03-02T13:43:31;22.80;47.10
2062;DHT22;11070;51.336;12.340;2024-03-02T13:45:58;23.00;47.00
2062;DHT22;11070;51.336;12.340;2024-03-02T13:48:24;22.70;47.00
2062;DHT22;11070;51.336;12.340;2024-03-02T13:50:52;22.60;47.80
2062;DHT22;11070;51.336;12.340;2024-03-02T13:53:19;23.30;47.50
2062;DHT22;11070;51.336;12.340;2024-03-02T13:55:45;24.20;47.00
2062;DHT22;11070;51.336;12.340;2024-03-02T13:58:11;23.80;45.90
2062;DHT22;11070;51.336;12.340;2024-03-02T14:00:37;23.00;47.40
2062;DHT22;11070;51.336;12.340;2024-03-02T14:03:07;22.90;47.20
2062;DHT22;11070;51.336;12.340;2024-03-02T14:05:33;22.80;47.20
2062;DHT22;11070;51.336;12.340;2024-03-02T14:07:59;22.30;47.90
2062;DHT22;11070;51.336;12.340;2024-03-02T14:10:26;21.50;49.70
2062;DHT22;11070;51.336;12.340;2024-03-02T14:12:52;21.60;49.40
2062;DHT22;11070;51.336;12.340;2024-03-02T14:15:23;21.90;49.20
2062;DHT22;11070;51.336;12.340;2024-03-02T14:17:49;21.70;48.20
2062;DHT22;11070;51.336;12.340;2024-03-02T14:20:15;21.80;48.50
2062;DHT22;11070;51.336;12.340;2024-03-02T14:22:47;22.10;48.60
2062;DHT22;11070;51.336;12.340;2024-03-02T14:25:13;22.20;48.70
2062;DHT22;11070;51.336;12.340;2024-03-02T14:27:39;22.30;49.00
2062;DHT22;11070;51.336;12.340;2024-03-02T14:30:05;22.00;47.90
2062;DHT22;11070;51.336;12.340;2024-03-02T14:32:32;21.60;48.50
2062;DHT22;11070;51.336;12.340;2024-03-02T14:34:57;20.90;48.50
2062;DHT22;11070;51.336;12.340;2024-03-02T14:37:23;20.30;49.90
2062;DHT22;11070;51.336;12.340;2024-03-02T14:39:49;19.90;50.80
2062;DHT22;11070;51.336;12.340;2024-03-02T14:42:16;20.10;51.20
2062;DHT22;11070;51.336;12.340;2024-03-02T14:44:41;20.40;50.70
2062;DHT22;11070;51.336;12.340;2024-03-02T14:47:07;20.40;50.60
2062;DHT22;11070;51.336;12.340;2024-03-02T14:49:33;20.30;50.70
2062;DHT22;11070;51.336;12.340;2024-03-02T14:52:02;20.30;51.00
2062;DHT22;11070;51.336;12.340;2024-03-02T14:54:27;20.30;51.40
2062;DHT22;11070;51.336;12.340;2024-03-02T14:56:53;20.60;51.20
2062;DHT22;11070;51.336;12.340;2024-03-02T14:59:19;20.50;51.40
2062;DHT22;11070;51.336;12.340;2024-03-02T15:01:44;20.30;51.70
2062;DHT22;11070;51.336;12.340;2024-03-02T15:04:11;20.10;52.30
2062;DHT22;11070;51.336;12.340;2024-03-02T15:06:37;19.70;53.10
2062;DHT22;11070;51.336;12.340;2024-03-02T15:09:03;19.10;54.40
2062;DHT22;11070;51.336;12.340;2024-03-02T15:11:28;18.60;55.10
2062;DHT22;11070;51.336;12.340;2024-03-02T15:13:55;18.10;56.00
2062;DHT22;11070;51.336;12.340;2024-03-02T15:16:21;17.90;56.60
2062;DHT22;11070;51.336;12.340;2024-03-02T15:18:47;17.50;57.50
2062;DHT22;11070;51.336;12.340;2024-03-02T15:21:12;17.30;58.10
2062;DHT22;11070;51.336;12.340;2024-03-02T15:23:38;17.10;59.00
2062;DHT22;11070;51.336;12.340;2024-03-02T15:26:04;17.10;59.30
2062;DHT22;11070;51.336;12.340;2024-03-02T15:28:29;17.10;59.80
2062;DHT22;11070;51.336;12.340;2024-03-02T15:30:55;17.30;59.80
2062;DHT22;11070;51.336;12.340;2024-03-02T15:33:21;17.50;59.60
2062;DHT22;11070;51.336;12.340;2024-03-02T15:35:50;17.50;59.20
2062;DHT22;11070;51.336;12.340;2024-03-02T15:38:16;17.30;59.70
2062;DHT22;11070;51.336;12.340;2024-03-02T15:40:42;17.10;60.80
2062;DHT22;11070;51.336;12.340;2024-03-02T15:43:08;16.90;62.60
2062;DHT22;11070;51.336;12.340;2024-03-02T15:45:33;16.80;62.60